sensor_id;sensor_type;location;lat;lon;timestamp;P1;P2;P0
73546;PMS7003;61807;48.384;-4.386;2022-12-07T00:02:04;22.00;19.75;13.00
73546;PMS7003;61807;48.384;-4.386;2022-12-07T00:04:29;33.50;21.00;13.75
73546;PMS7003;61807;48.384;-4.386;2022-12-07T00:06:55;31.25;21.25;14.75
73546;PMS7003;61807;48.384;-4.386;2022-12-07T00:09:20;22.25;19.50;11.25
73546;PMS7003;61807;48.384;-4.386;2022-12-07T00:11:48;26.50;15.75;11.25
73546;PMS7003;61807;48.384;-4.386;2022-12-07T00:14:15;26.50;19.25;13.25
73546;PMS7003;61807;48.384;-4.386;2022-12-07T00:16:42;25.25;21.50;13.00
73546;PMS7003;61807;48.384;-4.386;2022-12-07T00:19:09;23.00;17.50;10.75
73546;PMS7003;61807;48.384;-4.386;2022-12-07T00:21:36;21.00;16.50;11.00
73546;PMS7003;61807;48.384;-4.386;2022-12-07T00:24:03;22.25;15.75;11.00
73546;PMS7003;61807;48.384;-4.386;2022-12-07T00:26:30;20.00;16.25;8.25
73546;PMS7003;61807;48.384;-4.386;2022-12-07T00:29:01;23.75;19.00;11.75
73546;PMS7003;61807;48.384;-4.386;2022-12-07T00:31:30;22.25;16.25;11.75
73546;PMS7003;61807;48.384;-4.386;2022-12-07T00:34:03;25.50;18.00;13.00
73546;PMS7003;61807;48.384;-4.386;2022-12-07T00:36:30;16.75;16.25;9.25
73546;PMS7003;61807;48.384;-4.386;2022-12-07T00:38:57;24.50;17.25;9.00
73546;PMS7003;61807;48.384;-4.386;2022-12-07T00:41:24;17.75;13.75;8.50
73546;PMS7003;61807;48.384;-4.386;2022-12-07T00:43:50;19.50;14.50;9.00
73546;PMS7003;61807;48.384;-4.386;2022-12-07T00:46:17;20.25;12.25;8.00
73546;PMS7003;61807;48.384;-4.386;2022-12-07T00:48:43;22.25;14.50;9.25
73546;PMS7003;61807;48.384;-4.386;2022-12-07T00:51:09;17.75;15.25;8.75
73546;PMS7003;61807;48.384;-4.386;2022-12-07T00:53:37;22.75;18.75;11.00
73546;PMS7003;61807;48.384;-4.386;2022-12-07T00:56:10;22.25;18.25;9.00
73546;PMS7003;61807;48.384;-4.386;2022-12-07T00:58:37;22.50;13.75;8.75
73546;PMS7003;61807;48.384;-4.386;2022-12-07T01:01:03;25.25;13.75;8.50
73546;PMS7003;61807;48.384;-4.386;2022-12-07T01:03:30;17.25;14.00;9.00
73546;PMS7003;61807;48.384;-4.386;2022-12-07T01:05:56;18.50;14.25;8.50
73546;PMS7003;61807;48.384;-4.386;2022-12-07T01:08:22;24.25;17.50;11.75
73546;PMS7003;61807;48.384;-4.386;2022-12-07T01:10:56;17.50;15.25;10.25
73546;PMS7003;61807;48.384;-4.386;2022-12-07T01:13:23;18.75;14.00;10.00
73546;PMS7003;61807;48.384;-4.386;2022-12-07T01:15:48;18.75;13.00;9.00
73546;PMS7003;61807;48.384;-4.386;2022-12-07T01:18:13;22.50;15.75;9.00
73546;PMS7003;61807;48.384;-4.386;2022-12-07T01:20:39;18.00;15.00;8.00
73546;PMS7003;61807;48.384;-4.386;2022-12-07T01:23:05;19.00;15.75;8.50
73546;PMS7003;61807;48.384;-4.386;2022-12-07T01:25:31;13.75;10.25;7.25
73546;PMS7003;61807;48.384;-4.386;2022-12-07T01:27:56;13.75;12.25;7.50
73546;PMS7003;61807;48.384;-4.386;2022-12-07T01:30:22;14.25;11.00;7.25
73546;PMS7003;61807;48.384;-4.386;2022-12-07T01:32:47;20.00;12.00;7.00
73546;PMS7003;61807;48.384;-4.386;2022-12-07T01:35:12;14.25;9.00;7.75
73546;PMS7003;61807;48.384;-4.386;2022-12-07T01:37:38;13.75;10.00;6.75
73546;PMS7003;61807;48.384;-4.386;2022-12-07T01:40:05;9.75;9.25;6.50
73546;PMS7003;61807;48.384;-4.386;2022-12-07T01:42:31;8.75;7.75;6.00
73546;PMS7003;61807;48.384;-4.386;2022-12-07T01:47:56;19.25;9.00;7.00
73546;PMS7003;61807;48.384;-4.386;2022-12-07T01:50:24;12.75;10.25;8.00
73546;PMS7003;61807;48.384;-4.386;2022-12-07T01:52:53;13.00;11.75;4.00
73546;PMS7003;61807;48.384;-4.386;2022-12-07T01:55:21;13.00;10.00;6.00
73546;PMS7003;61807;48.384;-4.386;2022-12-07T01:57:47;10.75;9.75;7.00
73546;PMS7003;61807;48.384;-4.386;2022-12-07T02:00:16;19.75;10.25;7.75
73546;PMS7003;61807;48.384;-4.386;2022-12-07T02:05:12;15.75;9.75;7.00
73546;PMS7003;61807;48.384;-4.386;2022-12-07T02:07:38;13.75;8.00;6.00
73546;PMS7003;61807;48.384;-4.386;2022-12-07T02:12:44;21.50;12.50;6.50
73546;PMS7003;61807;48.384;-4.386;2022-12-07T02:15:13;12.75;8.50;6.50
73546;PMS7003;61807;48.384;-4.386;2022-12-07T02:17:43;8.75;8.25;6.25
73546;PMS7003;61807;48.384;-4.386;2022-12-07T02:20:26;12.75;9.50;7.00
73546;PMS7003;61807;48.384;-4.386;2022-12-07T02:25:47;12.00;8.00;6.00
73546;PMS7003;61807;48.384;-4.386;2022-12-07T02:28:19;12.50;4.50;3.25
73546;PMS7003;61807;48.384;-4.386;2022-12-07T02:31:08;12.25;6.25;3.75
73546;PMS7003;61807;48.384;-4.386;2022-12-07T02:33:41;7.75;7.75;6.50
73546;PMS7003;61807;48.384;-4.386;2022-12-07T02:36:13;11.50;7.00;4.00
73546;PMS7003;61807;48.384;-4.386;2022-12-07T02:38:50;8.75;6.50;5.25
73546;PMS7003;61807;48.384;-4.386;2022-12-07T02:41:27;7.00;7.00;5.75
73546;PMS7003;61807;48.384;-4.386;2022-12-07T02:44:08;6.75;3.00;1.00
73546;PMS7003;61807;48.384;-4.386;2022-12-07T02:46:42;6.25;5.50;3.50
73546;PMS7003;61807;48.384;-4.386;2022-12-07T02:49:11;8.00;6.00;4.00
73546;PMS7003;61807;48.384;-4.386;2022-12-07T02:51:43;12.00;8.00;4.50
73546;PMS7003;61807;48.384;-4.386;2022-12-07T02:54:12;8.75;5.50;4.00
73546;PMS7003;61807;48.384;-4.386;2022-12-07T02:56:46;16.50;8.00;4.50
73546;PMS7003;61807;48.384;-4.386;2022-12-07T03:07:06;6.75;6.75;6.00
73546;PMS7003;61807;48.384;-4.386;2022-12-07T03:15:13;9.00;7.75;6.50
73546;PMS7003;61807;48.384;-4.386;2022-12-07T03:17:44;15.25;11.50;8.00
73546;PMS7003;61807;48.384;-4.386;2022-12-07T03:20:12;10.75;8.00;5.75
73546;PMS7003;61807;48.384;-4.386;2022-12-07T03:22:40;11.25;8.00;5.25
73546;PMS7003;61807;48.384;-4.386;2022-12-07T03:25:10;14.00;8.00;4.75
73546;PMS7003;61807;48.384;-4.386;2022-12-07T03:27:48;15.25;9.00;7.25
73546;PMS7003;61807;48.384;-4.386;2022-12-07T03:30:21;12.25;8.50;5.75
73546;PMS7003;61807;48.384;-4.386;2022-12-07T03:35:22;12.33;8.67;5.33
73546;PMS7003;61807;48.384;-4.386;2022-12-07T03:37:53;9.25;7.75;4.00
73546;PMS7003;61807;48.384;-4.386;2022-12-07T03:42:47;10.75;8.75;7.00
73546;PMS7003;61807;48.384;-4.386;2022-12-07T03:45:14;8.25;8.00;5.00
73546;PMS7003;61807;48.384;-4.386;2022-12-07T03:50:44;13.00;9.00;5.25
73546;PMS7003;61807;48.384;-4.386;2022-12-07T03:53:18;8.75;6.50;4.25
73546;PMS7003;61807;48.384;-4.386;2022-12-07T03:55:48;11.25;10.00;6.75
73546;PMS7003;61807;48.384;-4.386;2022-12-07T03:58:16;10.75;8.00;4.00
73546;PMS7003;61807;48.384;-4.386;2022-12-07T04:00:44;11.00;7.25;4.75
73546;PMS7003;61807;48.384;-4.386;2022-12-07T04:03:10;9.00;9.00;7.25
73546;PMS7003;61807;48.384;-4.386;2022-12-07T04:05:36;17.00;16.75;11.25
73546;PMS7003;61807;48.384;-4.386;2022-12-07T04:08:03;10.00;9.00;5.75
73546;PMS7003;61807;48.384;-4.386;2022-12-07T04:10:28;16.50;10.50;6.00
73546;PMS7003;61807;48.384;-4.386;2022-12-07T04:12:54;10.00;10.00;8.25
73546;PMS7003;61807;48.384;-4.386;2022-12-07T04:15:19;14.25;8.00;5.00
73546;PMS7003;61807;48.384;-4.386;2022-12-07T04:17:45;9.25;8.00;4.25
73546;PMS7003;61807;48.384;-4.386;2022-12-07T04:20:10;16.25;10.00;5.00
73546;PMS7003;61807;48.384;-4.386;2022-12-07T04:22:36;11.50;9.00;5.75
73546;PMS7003;61807;48.384;-4.386;2022-12-07T04:25:01;13.25;9.75;6.25
73546;PMS7003;61807;48.384;-4.386;2022-12-07T04:27:27;11.75;8.75;6.25
73546;PMS7003;61807;48.384;-4.386;2022-12-07T04:29:52;10.00;9.00;6.25
73546;PMS7003;61807;48.384;-4.386;2022-12-07T04:32:18;8.75;7.50;5.00
73546;PMS7003;61807;48.384;-4.386;2022-12-07T04:34:43;13.25;11.00;6.50
73546;PMS7003;61807;48.384;-4.386;2022-12-07T04:37:09;9.50;9.50;5.25
73546;PMS7003;61807;48.384;-4.386;2022-12-07T04:39:34;9.00;7.50;4.00
73546;PMS7003;61807;48.384;-4.386;2022-12-07T04:42:00;12.50;9.50;5.25
73546;PMS7003;61807;48.384;-4.386;2022-12-07T04:44:26;13.25;9.50;6.25
73546;PMS7003;61807;48.384;-4.386;2022-12-07T04:46:53;11.75;11.25;6.75
73546;PMS7003;61807;48.384;-4.386;2022-12-07T04:49:20;10.75;8.50;5.50
73546;PMS7003;61807;48.384;-4.386;2022-12-07T04:51:46;11.00;10.00;6.00
73546;PMS7003;61807;48.384;-4.386;2022-12-07T04:54:13;12.50;9.00;5.50
73546;PMS7003;61807;48.384;-4.386;2022-12-07T04:56:39;13.50;9.50;7.00
73546;PMS7003;61807;48.384;-4.386;2022-12-07T04:59:05;12.25;9.25;5.00
73546;PMS7003;61807;48.384;-4.386;2022-12-07T05:01:31;9.50;8.50;5.75
73546;PMS7003;61807;48.384;-4.386;2022-12-07T05:03:57;9.25;6.75;4.25
73546;PMS7003;61807;48.384;-4.386;2022-12-07T05:06:22;14.25;10.75;6.00
73546;PMS7003;61807;48.384;-4.386;2022-12-07T05:08:48;10.25;7.25;4.25
73546;PMS7003;61807;48.384;-4.386;2022-12-07T05:11:14;17.00;8.75;6.00
73546;PMS7003;61807;48.384;-4.386;2022-12-07T05:13:58;12.75;10.25;6.25
73546;PMS7003;61807;48.384;-4.386;2022-12-07T05:16:24;16.75;9.00;5.00
73546;PMS7003;61807;48.384;-4.386;2022-12-07T05:18:49;12.50;10.50;7.00
73546;PMS7003;61807;48.384;-4.386;2022-12-07T05:21:15;16.00;12.75;7.50
73546;PMS7003;61807;48.384;-4.386;2022-12-07T05:23:40;9.75;8.00;5.25
73546;PMS7003;61807;48.384;-4.386;2022-12-07T05:26:05;16.00;9.00;6.25
73546;PMS7003;61807;48.384;-4.386;2022-12-07T05:28:31;11.75;10.50;6.00
73546;PMS7003;61807;48.384;-4.386;2022-12-07T05:30:56;8.75;8.00;5.75
73546;PMS7003;61807;48.384;-4.386;2022-12-07T05:33:22;15.75;12.25;6.50
73546;PMS7003;61807;48.384;-4.386;2022-12-07T05:35:47;11.00;9.25;5.75
73546;PMS7003;61807;48.384;-4.386;2022-12-07T05:38:12;9.75;9.00;5.00
73546;PMS7003;61807;48.384;-4.386;2022-12-07T05:40:38;14.00;10.25;7.00
73546;PMS7003;61807;48.384;-4.386;2022-12-07T05:43:03;12.75;11.00;8.00
73546;PMS7003;61807;48.384;-4.386;2022-12-07T05:45:29;13.00;10.00;5.00
73546;PMS7003;61807;48.384;-4.386;2022-12-07T05:47:54;12.00;8.75;7.00
73546;PMS7003;61807;48.384;-4.386;2022-12-07T05:50:19;11.00;11.00;7.50
73546;PMS7003;61807;48.384;-4.386;2022-12-07T05:52:45;13.50;8.50;6.00
73546;PMS7003;61807;48.384;-4.386;2022-12-07T05:55:10;9.25;8.25;5.50
73546;PMS7003;61807;48.384;-4.386;2022-12-07T05:57:36;12.75;10.25;7.00
73546;PMS7003;61807;48.384;-4.386;2022-12-07T06:00:02;12.00;10.00;6.75
73546;PMS7003;61807;48.384;-4.386;2022-12-07T06:02:28;9.25;9.00;5.25
73546;PMS7003;61807;48.384;-4.386;2022-12-07T06:04:54;10.25;7.50;4.75
73546;PMS7003;61807;48.384;-4.386;2022-12-07T06:07:19;10.75;9.25;7.25
73546;PMS7003;61807;48.384;-4.386;2022-12-07T06:09:44;16.25;9.25;7.00
73546;PMS7003;61807;48.384;-4.386;2022-12-07T06:12:10;15.00;9.00;7.00
73546;PMS7003;61807;48.384;-4.386;2022-12-07T06:14:55;12.50;9.00;6.50
73546;PMS7003;61807;48.384;-4.386;2022-12-07T06:17:20;18.00;9.50;7.00
73546;PMS7003;61807;48.384;-4.386;2022-12-07T06:19:46;13.75;9.75;7.00
73546;PMS7003;61807;48.384;-4.386;2022-12-07T06:22:11;14.00;8.75;7.50
73546;PMS7003;61807;48.384;-4.386;2022-12-07T06:24:37;12.50;8.50;5.25
73546;PMS7003;61807;48.384;-4.386;2022-12-07T06:27:03;12.00;7.50;4.00
73546;PMS7003;61807;48.384;-4.386;2022-12-07T06:29:29;7.50;7.00;4.25
73546;PMS7003;61807;48.384;-4.386;2022-12-07T06:31:55;12.25;7.00;6.00
73546;PMS7003;61807;48.384;-4.386;2022-12-07T06:34:22;13.00;8.00;6.75
73546;PMS7003;61807;48.384;-4.386;2022-12-07T06:36:49;10.50;8.00;6.00
73546;PMS7003;61807;48.384;-4.386;2022-12-07T06:39:21;13.25;8.50;6.50
73546;PMS7003;61807;48.384;-4.386;2022-12-07T06:41:47;9.75;7.25;4.00
73546;PMS7003;61807;48.384;-4.386;2022-12-07T06:44:13;15.00;12.00;7.00
73546;PMS7003;61807;48.384;-4.386;2022-12-07T06:46:39;11.00;8.25;7.00
73546;PMS7003;61807;48.384;-4.386;2022-12-07T06:49:04;13.00;6.50;4.25
73546;PMS7003;61807;48.384;-4.386;2022-12-07T06:51:30;15.75;11.75;8.00
73546;PMS7003;61807;48.384;-4.386;2022-12-07T06:53:57;10.00;7.25;6.00
73546;PMS7003;61807;48.384;-4.386;2022-12-07T06:56:22;10.00;8.50;6.75
73546;PMS7003;61807;48.384;-4.386;2022-12-07T06:58:48;14.50;8.00;6.00
73546;PMS7003;61807;48.384;-4.386;2022-12-07T07:01:15;17.25;16.00;11.75
73546;PMS7003;61807;48.384;-4.386;2022-12-07T07:03:42;9.75;8.50;7.00
73546;PMS7003;61807;48.384;-4.386;2022-12-07T07:06:08;11.75;8.25;4.75
73546;PMS7003;61807;48.384;-4.386;2022-12-07T07:08:37;18.00;11.00;6.75
73546;PMS7003;61807;48.384;-4.386;2022-12-07T07:11:03;15.25;11.50;7.75
73546;PMS7003;61807;48.384;-4.386;2022-12-07T07:13:30;13.75;10.00;7.00
73546;PMS7003;61807;48.384;-4.386;2022-12-07T07:15:55;13.00;13.00;8.00
73546;PMS7003;61807;48.384;-4.386;2022-12-07T07:18:21;19.50;15.75;8.00
73546;PMS7003;61807;48.384;-4.386;2022-12-07T07:20:46;15.00;10.00;7.75
73546;PMS7003;61807;48.384;-4.386;2022-12-07T07:23:12;12.75;9.75;6.00
73546;PMS7003;61807;48.384;-4.386;2022-12-07T07:25:38;11.25;9.25;5.50
73546;PMS7003;61807;48.384;-4.386;2022-12-07T07:28:04;11.00;10.25;7.25
73546;PMS7003;61807;48.384;-4.386;2022-12-07T07:30:29;16.25;11.25;9.00
73546;PMS7003;61807;48.384;-4.386;2022-12-07T07:32:58;16.50;11.75;8.50
73546;PMS7003;61807;48.384;-4.386;2022-12-07T07:35:28;13.00;9.50;7.25
73546;PMS7003;61807;48.384;-4.386;2022-12-07T07:37:55;15.75;11.75;9.00
73546;PMS7003;61807;48.384;-4.386;2022-12-07T07:40:20;14.25;11.25;8.00
73546;PMS7003;61807;48.384;-4.386;2022-12-07T07:42:49;11.00;9.00;5.00
73546;PMS7003;61807;48.384;-4.386;2022-12-07T07:45:19;15.25;10.50;5.75
73546;PMS7003;61807;48.384;-4.386;2022-12-07T07:47:46;16.75;11.75;8.00
73546;PMS7003;61807;48.384;-4.386;2022-12-07T07:50:12;19.25;15.75;9.75
73546;PMS7003;61807;48.384;-4.386;2022-12-07T07:52:38;23.00;15.25;9.50
73546;PMS7003;61807;48.384;-4.386;2022-12-07T07:55:04;22.50;17.75;10.50
73546;PMS7003;61807;48.384;-4.386;2022-12-07T07:57:30;25.00;20.25;11.00
73546;PMS7003;61807;48.384;-4.386;2022-12-07T07:59:55;25.50;19.25;11.75
73546;PMS7003;61807;48.384;-4.386;2022-12-07T08:02:21;17.75;13.75;9.00
73546;PMS7003;61807;48.384;-4.386;2022-12-07T08:04:47;13.25;10.75;6.25
73546;PMS7003;61807;48.384;-4.386;2022-12-07T08:07:13;18.00;12.00;8.00
73546;PMS7003;61807;48.384;-4.386;2022-12-07T08:09:40;18.00;12.75;9.00
73546;PMS7003;61807;48.384;-4.386;2022-12-07T08:12:06;16.00;14.00;8.50
73546;PMS7003;61807;48.384;-4.386;2022-12-07T08:14:31;18.00;14.00;9.25
73546;PMS7003;61807;48.384;-4.386;2022-12-07T08:16:57;22.75;14.00;8.00
73546;PMS7003;61807;48.384;-4.386;2022-12-07T08:19:23;32.50;18.50;10.00
73546;PMS7003;61807;48.384;-4.386;2022-12-07T08:21:48;19.25;11.75;8.00
73546;PMS7003;61807;48.384;-4.386;2022-12-07T08:24:14;15.25;11.00;8.50
73546;PMS7003;61807;48.384;-4.386;2022-12-07T08:26:40;16.75;12.00;8.25
73546;PMS7003;61807;48.384;-4.386;2022-12-07T08:29:05;17.50;11.00;6.00
73546;PMS7003;61807;48.384;-4.386;2022-12-07T08:31:31;10.25;8.25;5.00
73546;PMS7003;61807;48.384;-4.386;2022-12-07T08:33:56;18.00;10.00;5.00
73546;PMS7003;61807;48.384;-4.386;2022-12-07T08:36:22;6.50;5.00;3.00
73546;PMS7003;61807;48.384;-4.386;2022-12-07T08:38:48;8.50;4.75;3.75
73546;PMS7003;61807;48.384;-4.386;2022-12-07T08:41:13;8.50;7.50;4.00
73546;PMS7003;61807;48.384;-4.386;2022-12-07T08:43:39;10.75;5.00;3.50
73546;PMS7003;61807;48.384;-4.386;2022-12-07T08:48:56;7.00;5.00;3.00
73546;PMS7003;61807;48.384;-4.386;2022-12-07T08:51:26;8.50;5.00;4.00
73546;PMS7003;61807;48.384;-4.386;2022-12-07T08:53:52;11.50;6.00;4.00
73546;PMS7003;61807;48.384;-4.386;2022-12-07T08:56:20;11.50;8.75;5.75
73546;PMS7003;61807;48.384;-4.386;2022-12-07T08:58:46;36.00;27.00;14.25
73546;PMS7003;61807;48.384;-4.386;2022-12-07T09:01:12;80.00;58.00;38.00
73546;PMS7003;61807;48.384;-4.386;2022-12-07T09:03:37;73.75;52.00;29.75
73546;PMS7003;61807;48.384;-4.386;2022-12-07T09:06:03;65.25;53.50;36.00
73546;PMS7003;61807;48.384;-4.386;2022-12-07T09:08:30;47.75;36.75;23.25
73546;PMS7003;61807;48.384;-4.386;2022-12-07T09:10:59;42.25;31.00;17.50
73546;PMS7003;61807;48.384;-4.386;2022-12-07T09:13:25;35.00;25.00;14.00
73546;PMS7003;61807;48.384;-4.386;2022-12-07T09:15:51;22.25;19.25;12.25
73546;PMS7003;61807;48.384;-4.386;2022-12-07T09:18:16;32.00;22.00;14.00
73546;PMS7003;61807;48.384;-4.386;2022-12-07T09:20:42;25.00;16.00;10.00
73546;PMS7003;61807;48.384;-4.386;2022-12-07T09:23:07;40.00;31.75;21.00
73546;PMS7003;61807;48.384;-4.386;2022-12-07T09:25:33;45.75;37.00;22.00
73546;PMS7003;61807;48.384;-4.386;2022-12-07T09:27:59;37.50;27.50;16.00
73546;PMS7003;61807;48.384;-4.386;2022-12-07T09:30:25;18.00;16.75;11.00
73546;PMS7003;61807;48.384;-4.386;2022-12-07T09:32:54;17.25;15.50;10.25
73546;PMS7003;61807;48.384;-4.386;2022-12-07T09:35:21;13.50;11.50;9.25
73546;PMS7003;61807;48.384;-4.386;2022-12-07T09:37:47;11.00;9.25;4.75
73546;PMS7003;61807;48.384;-4.386;2022-12-07T09:40:13;18.25;14.00;10.00
73546;PMS7003;61807;48.384;-4.386;2022-12-07T09:42:39;14.50;12.00;7.75
73546;PMS7003;61807;48.384;-4.386;2022-12-07T09:45:52;15.25;14.00;10.00
73546;PMS7003;61807;48.384;-4.386;2022-12-07T09:48:00;17.75;16.00;10.00
73546;PMS7003;61807;48.384;-4.386;2022-12-07T09:50:27;14.25;12.75;9.50
73546;PMS7003;61807;48.384;-4.386;2022-12-07T09:52:54;20.75;16.00;11.00
73546;PMS7003;61807;48.384;-4.386;2022-12-07T09:55:28;21.50;16.25;10.50
73546;PMS7003;61807;48.384;-4.386;2022-12-07T09:57:55;16.50;13.50;10.00
73546;PMS7003;61807;48.384;-4.386;2022-12-07T10:00:23;15.00;14.75;8.25
73546;PMS7003;61807;48.384;-4.386;2022-12-07T10:05:36;20.50;17.75;11.00
73546;PMS7003;61807;48.384;-4.386;2022-12-07T10:08:14;32.75;25.75;15.00
73546;PMS7003;61807;48.384;-4.386;2022-12-07T10:10:42;30.00;26.00;15.75
73546;PMS7003;61807;48.384;-4.386;2022-12-07T10:13:10;62.75;45.00;27.50
73546;PMS7003;61807;48.384;-4.386;2022-12-07T10:18:44;59.00;45.00;26.75
73546;PMS7003;61807;48.384;-4.386;2022-12-07T10:23:34;36.50;33.00;20.25
73546;PMS7003;61807;48.384;-4.386;2022-12-07T10:26:20;62.50;48.25;31.00
73546;PMS7003;61807;48.384;-4.386;2022-12-07T10:28:47;57.75;45.50;29.00
73546;PMS7003;61807;48.384;-4.386;2022-12-07T10:31:17;46.50;35.75;22.00
73546;PMS7003;61807;48.384;-4.386;2022-12-07T10:36:25;25.25;21.25;13.75
73546;PMS7003;61807;48.384;-4.386;2022-12-07T10:39:01;20.25;18.50;13.00
73546;PMS7003;61807;48.384;-4.386;2022-12-07T10:41:52;20.75;18.00;12.00
73546;PMS7003;61807;48.384;-4.386;2022-12-07T10:44:21;21.00;16.00;11.50
73546;PMS7003;61807;48.384;-4.386;2022-12-07T10:49:30;20.75;19.25;13.25
73546;PMS7003;61807;48.384;-4.386;2022-12-07T11:16:52;77.00;59.50;34.75
73546;PMS7003;61807;48.384;-4.386;2022-12-07T11:31:09;54.75;41.75;25.75
73546;PMS7003;61807;48.384;-4.386;2022-12-07T11:36:39;62.75;49.25;31.00
73546;PMS7003;61807;48.384;-4.386;2022-12-07T11:42:15;55.50;42.00;24.25
73546;PMS7003;61807;48.384;-4.386;2022-12-07T11:58:54;28.50;25.50;16.25
73546;PMS7003;61807;48.384;-4.386;2022-12-07T12:03:46;25.50;23.25;14.50
73546;PMS7003;61807;48.384;-4.386;2022-12-07T12:06:14;23.50;20.00;14.50
73546;PMS7003;61807;48.384;-4.386;2022-12-07T12:08:41;27.25;22.75;13.50
73546;PMS7003;61807;48.384;-4.386;2022-12-07T12:13:52;22.50;21.50;15.50
73546;PMS7003;61807;48.384;-4.386;2022-12-07T12:21:49;24.75;20.75;11.00
73546;PMS7003;61807;48.384;-4.386;2022-12-07T12:24:28;22.00;19.50;12.75
73546;PMS7003;61807;48.384;-4.386;2022-12-07T12:27:08;19.50;19.50;12.75
73546;PMS7003;61807;48.384;-4.386;2022-12-07T12:29:40;21.50;20.25;12.00
73546;PMS7003;61807;48.384;-4.386;2022-12-07T12:32:16;18.00;15.00;11.50
73546;PMS7003;61807;48.384;-4.386;2022-12-07T12:42:47;19.50;15.75;11.00
73546;PMS7003;61807;48.384;-4.386;2022-12-07T12:50:28;19.25;16.50;11.75
73546;PMS7003;61807;48.384;-4.386;2022-12-07T12:58:31;21.50;15.25;11.75
73546;PMS7003;61807;48.384;-4.386;2022-12-07T13:04:27;18.75;13.75;10.00
73546;PMS7003;61807;48.384;-4.386;2022-12-07T13:06:59;21.25;16.50;11.50
73546;PMS7003;61807;48.384;-4.386;2022-12-07T13:09:28;16.75;14.25;10.00
73546;PMS7003;61807;48.384;-4.386;2022-12-07T13:12:01;14.25;13.75;8.25
73546;PMS7003;61807;48.384;-4.386;2022-12-07T13:17:11;16.50;14.75;10.25
73546;PMS7003;61807;48.384;-4.386;2022-12-07T13:25:21;15.00;15.00;10.50
73546;PMS7003;61807;48.384;-4.386;2022-12-07T13:28:00;17.75;16.50;9.75
73546;PMS7003;61807;48.384;-4.386;2022-12-07T13:30:33;17.00;15.00;9.25
73546;PMS7003;61807;48.384;-4.386;2022-12-07T13:33:10;16.50;15.50;12.50
73546;PMS7003;61807;48.384;-4.386;2022-12-07T13:35:43;14.00;12.75;8.00
73546;PMS7003;61807;48.384;-4.386;2022-12-07T13:38:28;21.00;15.75;11.00
73546;PMS7003;61807;48.384;-4.386;2022-12-07T13:41:15;19.25;15.00;11.00
73546;PMS7003;61807;48.384;-4.386;2022-12-07T13:44:33;13.75;11.00;6.50
73546;PMS7003;61807;48.384;-4.386;2022-12-07T13:46:41;16.75;12.50;7.25
73546;PMS7003;61807;48.384;-4.386;2022-12-07T13:49:29;13.00;12.50;7.00
73546;PMS7003;61807;48.384;-4.386;2022-12-07T13:57:30;11.75;10.25;7.50
73546;PMS7003;61807;48.384;-4.386;2022-12-07T13:59:59;11.25;10.25;6.00
73546;PMS7003;61807;48.384;-4.386;2022-12-07T14:05:05;13.75;13.00;7.50
73546;PMS7003;61807;48.384;-4.386;2022-12-07T14:07:33;12.00;7.75;6.00
73546;PMS7003;61807;48.384;-4.386;2022-12-07T14:10:01;14.50;11.25;7.25
73546;PMS7003;61807;48.384;-4.386;2022-12-07T14:12:31;14.25;12.00;7.75
73546;PMS7003;61807;48.384;-4.386;2022-12-07T14:15:00;14.25;11.25;7.00
73546;PMS7003;61807;48.384;-4.386;2022-12-07T14:17:27;16.00;13.00;8.00
73546;PMS7003;61807;48.384;-4.386;2022-12-07T14:20:03;14.00;9.75;7.00
73546;PMS7003;61807;48.384;-4.386;2022-12-07T14:27:30;14.50;10.25;6.75
73546;PMS7003;61807;48.384;-4.386;2022-12-07T14:29:59;40.00;33.50;23.25
73546;PMS7003;61807;48.384;-4.386;2022-12-07T14:32:27;21.00;15.25;12.00
73546;PMS7003;61807;48.384;-4.386;2022-12-07T14:35:12;17.50;14.75;9.25
73546;PMS7003;61807;48.384;-4.386;2022-12-07T14:37:39;20.75;16.00;11.25
73546;PMS7003;61807;48.384;-4.386;2022-12-07T14:40:06;23.50;19.25;14.50
73546;PMS7003;61807;48.384;-4.386;2022-12-07T14:42:32;10.00;10.00;7.00
73546;PMS7003;61807;48.384;-4.386;2022-12-07T14:44:59;3.50;3.25;1.00
73546;PMS7003;61807;48.384;-4.386;2022-12-07T14:47:25;12.25;10.00;5.50
73546;PMS7003;61807;48.384;-4.386;2022-12-07T14:49:51;13.25;9.50;6.75
73546;PMS7003;61807;48.384;-4.386;2022-12-07T14:52:18;12.00;11.75;7.00
73546;PMS7003;61807;48.384;-4.386;2022-12-07T14:54:46;8.75;7.50;6.50
73546;PMS7003;61807;48.384;-4.386;2022-12-07T14:57:11;11.00;7.50;5.75
73546;PMS7003;61807;48.384;-4.386;2022-12-07T14:59:37;9.50;6.00;4.25
73546;PMS7003;61807;48.384;-4.386;2022-12-07T15:02:03;12.25;11.75;8.25
73546;PMS7003;61807;48.384;-4.386;2022-12-07T15:04:29;8.25;8.25;5.75
73546;PMS7003;61807;48.384;-4.386;2022-12-07T15:06:58;10.25;8.00;6.00
73546;PMS7003;61807;48.384;-4.386;2022-12-07T15:09:24;8.00;8.00;5.50
73546;PMS7003;61807;48.384;-4.386;2022-12-07T15:11:50;15.75;15.50;12.00
73546;PMS7003;61807;48.384;-4.386;2022-12-07T15:14:15;10.25;9.00;6.00
73546;PMS7003;61807;48.384;-4.386;2022-12-07T15:16:41;12.50;8.50;6.75
73546;PMS7003;61807;48.384;-4.386;2022-12-07T15:19:11;10.50;8.50;6.00
73546;PMS7003;61807;48.384;-4.386;2022-12-07T15:21:42;17.75;11.00;6.00
73546;PMS7003;61807;48.384;-4.386;2022-12-07T15:24:09;8.50;7.50;5.25
73546;PMS7003;61807;48.384;-4.386;2022-12-07T15:26:35;13.75;10.50;7.00
73546;PMS7003;61807;48.384;-4.386;2022-12-07T15:29:01;12.75;12.00;8.25
73546;PMS7003;61807;48.384;-4.386;2022-12-07T15:31:27;12.50;11.25;7.00
73546;PMS7003;61807;48.384;-4.386;2022-12-07T15:33:52;9.00;8.75;7.00
73546;PMS7003;61807;48.384;-4.386;2022-12-07T15:36:18;10.75;8.00;5.50
73546;PMS7003;61807;48.384;-4.386;2022-12-07T15:38:46;13.50;11.50;7.50
73546;PMS7003;61807;48.384;-4.386;2022-12-07T15:41:12;16.25;13.75;9.00
73546;PMS7003;61807;48.384;-4.386;2022-12-07T15:43:37;8.50;8.00;7.00
73546;PMS7003;61807;48.384;-4.386;2022-12-07T15:46:21;11.25;10.75;6.00
73546;PMS7003;61807;48.384;-4.386;2022-12-07T15:48:46;10.00;7.00;5.75
73546;PMS7003;61807;48.384;-4.386;2022-12-07T15:51:12;8.00;6.50;5.00
73546;PMS7003;61807;48.384;-4.386;2022-12-07T15:53:37;12.00;12.00;9.25
73546;PMS7003;61807;48.384;-4.386;2022-12-07T15:56:06;9.75;7.75;6.00
73546;PMS7003;61807;48.384;-4.386;2022-12-07T15:58:32;12.25;8.50;5.00
73546;PMS7003;61807;48.384;-4.386;2022-12-07T16:00:58;7.75;7.75;6.00
73546;PMS7003;61807;48.384;-4.386;2022-12-07T16:03:23;9.25;6.25;4.00
73546;PMS7003;61807;48.384;-4.386;2022-12-07T16:05:49;7.00;7.00;5.00
73546;PMS7003;61807;48.384;-4.386;2022-12-07T16:08:15;11.75;7.50;6.00
73546;PMS7003;61807;48.384;-4.386;2022-12-07T16:10:41;11.50;8.75;5.50
73546;PMS7003;61807;48.384;-4.386;2022-12-07T16:13:10;12.75;11.50;6.75
73546;PMS7003;61807;48.384;-4.386;2022-12-07T16:15:42;11.50;8.25;6.00
73546;PMS7003;61807;48.384;-4.386;2022-12-07T16:18:08;11.50;10.75;7.00
73546;PMS7003;61807;48.384;-4.386;2022-12-07T16:20:33;18.50;13.25;8.50
73546;PMS7003;61807;48.384;-4.386;2022-12-07T16:22:59;14.75;12.50;9.50
73546;PMS7003;61807;48.384;-4.386;2022-12-07T16:25:24;13.00;12.00;7.75
73546;PMS7003;61807;48.384;-4.386;2022-12-07T16:27:50;20.00;12.25;7.75
73546;PMS7003;61807;48.384;-4.386;2022-12-07T16:30:16;14.50;11.75;7.75
73546;PMS7003;61807;48.384;-4.386;2022-12-07T16:32:42;15.25;12.50;7.75
73546;PMS7003;61807;48.384;-4.386;2022-12-07T16:35:08;20.50;14.25;8.50